Flight Track Log - Related Links

Times and Time Zones

All times are in EDT time to prevent confusion due to time zone crossing. See the GLA61C flight status page for this flight to view local times or setup timezone preferences in your user account.

Time Position Orientation Groundspeed Altitude Reporting Facility
EDT Latitude Longitude Course Direction KTS MPH feet Rate Location/Type
Sat 08:41:35 AM 37.3500 -108.5847 48° Northeast 140 161 8,600  Level Denver Center
Sat 08:42:35 AM 37.3917 -108.5419 39° Northeast 168 193 10,500 1,835 Climbing Denver Center
Sat 08:43:00 AM 37.5362 -108.2941 46° Northeast  Level FlightAware Approximate
Sat 08:43:36 AM 37.4292 -108.5047 38° Northeast 175 201 12,300  Level Denver Center
Sat 08:44:00 AM 37.5849 -108.2311 48° Northeast  Level FlightAware Approximate
Sat 08:44:37 AM 37.4647 -108.4611 44° Northeast 180 207 14,000  Level Denver Center
Sat 08:45:00 AM 37.6320 -108.1661 48° Northeast  Level FlightAware Approximate
Sat 08:45:37 AM 37.4997 -108.4103 49° Northeast 188 216 15,500  Level Denver Center
Sat 08:46:00 AM 37.6791 -108.1011 48° Northeast  Level FlightAware Approximate
Sat 08:46:38 AM 37.5419 -108.3500 49° Northeast 201 231 17,100  Level Denver Center
Sat 08:47:38 AM 37.5761 -108.2933 53° Northeast 208 239 18,100 1,041 Climbing Denver Center
Sat 08:48:39 AM 37.6131 -108.2425 47° Northeast 207 238 19,200 1,082 Climbing Denver Center
Sat 08:49:40 AM 37.6561 -108.1803 49° Northeast 209 241 20,300 992 Climbing Denver Center
Sat 08:50:40 AM 37.6928 -108.1236 51° Northeast 214 246 21,200 942 Climbing Denver Center
Sat 08:51:41 AM 37.7303 -108.0692 49° Northeast 215 247 22,200 885 Climbing Denver Center
Sat 08:52:42 AM 37.7769 -108.0128 44° Northeast 211 243 23,000 694 Climbing Denver Center
Sat 08:53:42 AM 37.8183 -107.9619 44° Northeast 215 247 23,600 586 Climbing Denver Center
Sat 08:54:55 AM 37.8742 -107.8894 46° Northeast 224 258 24,300 582 Climbing Denver Center
Sat 08:55:56 AM 37.9128 -107.8308 50° Northeast 227 261 24,900 347 Climbing Denver Center
Sat 08:56:56 AM 37.9572 -107.7739 45° Northeast 233 268 25,000 50 Climbing Denver Center
Sat 08:57:57 AM 38.0081 -107.6997 49° Northeast 247 284 25,000  Level Denver Center
Sat 08:58:57 AM 38.0547 -107.6344 48° Northeast 257 296 25,000  Level Denver Center
Sat 08:59:58 AM 38.1042 -107.5583 50° Northeast 266 306 25,000  Level Denver Center
Sat 09:00:59 AM 38.1489 -107.4850 52° Northeast 271 312 25,000  Level Denver Center
Sat 09:01:59 AM 38.1958 -107.4133 50° Northeast 273 314 25,000  Level Denver Center
Sat 09:03:00 AM 38.2519 -107.3358 47° Northeast 268 308 25,000  Level Denver Center
Sat 09:04:00 AM 38.2986 -107.2672 49° Northeast 268 308 25,000  Level Denver Center
Sat 09:05:01 AM 38.3436 -107.1956 51° Northeast 269 310 25,000  Level Denver Center
Sat 09:06:02 AM 38.3892 -107.1350 46° Northeast 264 304 25,000  Level Denver Center
Sat 09:07:02 AM 38.4375 -107.0606 50° Northeast 269 310 25,000  Level Denver Center
Sat 09:08:03 AM 38.4858 -106.9678 56° Northeast 268 308 25,000  Level Denver Center
Sat 09:09:03 AM 38.5072 -106.8761 73° East 271 312 25,000  Level Denver Center
Sat 09:10:04 AM 38.5342 -106.7850 69° East 272 313 25,000  Level Denver Center
Sat 09:11:05 AM 38.5661 -106.6978 65° Northeast 272 313 25,000  Level Denver Center
Sat 09:12:05 AM 38.5919 -106.6092 70° East 269 310 25,000  Level Denver Center
Sat 09:13:06 AM 38.6147 -106.5161 73° East 274 315 25,000 49 Level Denver Center
Sat 09:14:07 AM 38.6367 -106.4269 72° East 264 304 25,100 50 Climbing Denver Center
Sat 09:15:07 AM 38.6675 -106.3397 66° East 269 310 25,100 -50 Level Denver Center
Sat 09:16:08 AM 38.6933 -106.2481 70° East 272 313 25,000 -197 Descending Denver Center
Sat 09:17:09 AM 38.7331 -106.1589 60° Northeast 269 310 24,700 -744 Descending Denver Center
Sat 09:18:09 AM 38.7717 -106.0814 57° Northeast 269 310 23,500 -1,041 Descending Denver Center
Sat 09:19:10 AM 38.8100 -106.0047 57° Northeast 268 308 22,600 -1,328 Descending Denver Center
Sat 09:20:11 AM 38.8542 -105.9158 57° Northeast 265 305 20,800 -1,534 Descending Denver Center
Sat 09:21:23 AM 38.8953 -105.8458 53° Northeast 260 299 19,200 -1,398 Descending Denver Center
Sat 09:22:24 AM 38.9522 -105.7564 51° Northeast 251 289 17,700 -934 Descending Denver Center
Sat 09:23:25 AM 38.9978 -105.6858 50° Northeast 264 304 17,300 -645 Descending Denver Center
Sat 09:24:25 AM 39.0472 -105.6147 48° Northeast 274 315 16,400 -694 Descending Denver Center
Sat 09:25:26 AM 39.0978 -105.5311 52° Northeast 267 307 15,900 -197 Descending Denver Center
Sat 09:26:27 AM 39.1383 -105.4703 49° Northeast 257 296 16,000 -50 Climbing Denver Center
Sat 09:27:27 AM 39.1914 -105.3986 46° Northeast 255 293 15,800 -446 Descending Denver Center
Sat 09:28:28 AM 39.2425 -105.3325 45° Northeast 262 302 15,100 -393 Descending Denver Center
Sat 09:29:29 AM 39.2906 -105.2686 46° Northeast 251 289 15,000 -248 Descending Denver Center
Sat 09:30:29 AM 39.3431 -105.2075 42° Northeast 253 291 14,600 -694 Descending Denver Center
Sat 09:31:30 AM 39.4000 -105.1417 42° Northeast 254 292 13,600 -508 Descending Denver Center
Sat 09:33:26 AM 39.5000 -105.0333 40° Northeast 257 296 13,100 -205 Descending Denver TRACON
Sat 09:34:26 AM 39.5667 -104.9667 38° Northeast 262 302 13,000 -50 Descending Denver TRACON
Sat 09:35:26 AM 39.6167 -104.9167 38° Northeast 260 299 13,000 -50 Level Denver TRACON
Sat 09:36:26 AM 39.6833 -104.8833 21° North 259 298 12,900 -400 Descending Denver TRACON
Sat 09:37:26 AM 39.7500 -104.8500 21° North 251 289 12,200 -675 Descending Denver TRACON
Sat 09:37:46 AM 39.7744 -104.8528 355° North 249 287 12,000 -963 Descending Denver Center
Sat 09:38:47 AM 39.8406 -104.8519 North 238 274 10,900 -541 Descending Denver Center
Sat 09:39:48 AM 39.9044 -104.8497 North 227 261 10,900 -344 Level Denver Center
Sat 09:40:49 AM 39.9647 -104.8403 North 218 251 10,200 -1,328 Descending Denver Center
Sat 09:41:50 AM 40.0011 -104.7919 45° Northeast 226 260 8,200 -1,475 Descending Denver Center
Sat 09:42:51 AM 39.9800 -104.7092 108° East 247 284 7,200 -1,190 Descending Denver Center
Sat 09:43:51 AM 39.9158 -104.6958 171° South 205 236 5,800 -992 Descending Denver Center
Sat 09:44:52 AM 39.8769 -104.6967 181° South 132 152 5,200 -590 Descending Denver Center
Sat 09:46:00 AM 39.8617 -104.6732 130° Southeast  Level Estimated
Sat 09:53:00 AM 39.8617 -104.6732 142° Southeast  Level Estimated

Login

Don't have an account? Register now (free) for customized features, flight alerts, and more!